createdAt,value
2023-05-12T00:01:43.226Z,11.50
2023-05-12T00:04:12.927Z,11.50
2023-05-12T00:06:41.368Z,11.50
2023-05-12T00:09:09.835Z,11.50
2023-05-12T00:11:38.371Z,11.50
2023-05-12T00:14:07.442Z,11.50
2023-05-12T00:16:35.686Z,11.50
2023-05-12T00:19:03.886Z,11.60
2023-05-12T00:21:35.544Z,11.50
2023-05-12T00:24:03.834Z,11.50
2023-05-12T00:26:31.865Z,11.50
2023-05-12T00:29:00.127Z,11.50
2023-05-12T00:31:28.589Z,11.40
2023-05-12T00:33:57.247Z,11.50
2023-05-12T00:36:27.987Z,11.50
2023-05-12T00:38:58.659Z,11.50
2023-05-12T00:41:27.230Z,11.50
2023-05-12T00:43:55.444Z,11.80
2023-05-12T00:46:23.602Z,11.50
2023-05-12T00:48:55.485Z,11.80
2023-05-12T00:51:24.320Z,11.50
2023-05-12T00:53:53.070Z,11.40
2023-05-12T00:56:22.817Z,11.40
2023-05-12T00:58:51.364Z,11.40
2023-05-12T01:01:20.194Z,11.40
2023-05-12T01:03:51.210Z,11.40
2023-05-12T01:06:24.165Z,11.30
2023-05-12T01:08:53.254Z,11.30
2023-05-12T01:11:23.520Z,11.30
2023-05-12T01:13:51.595Z,11.30
2023-05-12T01:16:25.148Z,11.30
2023-05-12T01:18:57.200Z,11.30
2023-05-12T01:21:25.856Z,11.30
2023-05-12T01:23:59.961Z,11.30
2023-05-12T01:26:32.446Z,11.20
2023-05-12T01:29:03.288Z,11.20
2023-05-12T01:31:32.060Z,11.20
2023-05-12T01:34:00.914Z,11.30
2023-05-12T01:36:29.525Z,11.30
2023-05-12T01:38:58.833Z,11.30
2023-05-12T01:41:27.011Z,11.40
2023-05-12T01:43:56.913Z,11.40
2023-05-12T01:46:25.270Z,11.40
2023-05-12T01:48:56.265Z,11.40
2023-05-12T01:51:24.479Z,11.40
2023-05-12T01:53:52.860Z,11.40
2023-05-12T01:56:24.436Z,11.40
2023-05-12T01:58:52.858Z,11.40
2023-05-12T02:01:24.898Z,11.40
2023-05-12T02:03:53.349Z,11.40
2023-05-12T02:06:23.932Z,11.40
2023-05-12T02:08:52.623Z,11.40
2023-05-12T02:11:21.641Z,11.30
2023-05-12T02:13:49.763Z,11.30
2023-05-12T02:16:18.047Z,11.30
2023-05-12T02:18:48.524Z,11.30
2023-05-12T02:21:16.767Z,11.20
2023-05-12T02:23:45.136Z,11.20
2023-05-12T02:26:13.856Z,11.20
2023-05-12T02:28:42.465Z,11.20
2023-05-12T02:31:10.625Z,11.20
2023-05-12T02:33:39.136Z,11.20
2023-05-12T02:36:09.524Z,11.20
2023-05-12T02:38:37.676Z,11.20
2023-05-12T02:41:05.824Z,11.20
2023-05-12T02:43:34.611Z,11.30
2023-05-12T02:46:02.996Z,11.20
2023-05-12T02:48:31.254Z,11.20
2023-05-12T02:50:59.270Z,11.30
2023-05-12T02:53:29.192Z,11.20
2023-05-12T02:55:57.316Z,11.20
2023-05-12T02:58:25.554Z,11.30
2023-05-12T03:01:03.109Z,11.20
2023-05-12T03:03:35.657Z,11.30
2023-05-12T03:06:04.539Z,11.20
2023-05-12T03:08:34.050Z,11.20
2023-05-12T03:11:02.286Z,11.10
2023-05-12T03:13:30.610Z,11.10
2023-05-12T03:16:04.473Z,11.10
2023-05-12T03:18:33.366Z,11.10
2023-05-12T03:21:01.551Z,11.10
2023-05-12T03:23:29.616Z,11.10
2023-05-12T03:25:59.377Z,11.20
2023-05-12T03:28:28.669Z,11.10
2023-05-12T03:30:57.013Z,11.10
2023-05-12T03:33:25.081Z,11.10
2023-05-12T03:35:54.077Z,11.10
2023-05-12T03:38:25.631Z,11.10
2023-05-12T03:41:03.703Z,11.10
2023-05-12T03:43:33.617Z,11.10
2023-05-12T03:46:01.899Z,11.10
2023-05-12T03:48:30.084Z,11.10
2023-05-12T03:50:58.209Z,11.10
2023-05-12T03:53:26.385Z,11.10
2023-05-12T03:55:54.484Z,11.10
2023-05-12T03:58:24.036Z,11.10
2023-05-12T04:00:53.800Z,11.20
2023-05-12T04:03:22.004Z,11.20
2023-05-12T04:05:50.246Z,11.20
2023-05-12T04:08:18.360Z,11.10
2023-05-12T04:10:46.699Z,11.20
2023-05-12T04:13:15.002Z,11.20
2023-05-12T04:15:43.184Z,11.20
2023-05-12T04:18:12.950Z,11.10
2023-05-12T04:20:40.991Z,11.20
2023-05-12T04:23:11.181Z,11.20
2023-05-12T04:25:40.871Z,11.20
2023-05-12T04:28:11.364Z,11.30
2023-05-12T04:30:41.905Z,11.40
2023-05-12T04:33:10.579Z,11.50
2023-05-12T04:35:40.853Z,11.70
2023-05-12T04:38:10.810Z,11.80
2023-05-12T04:40:39.315Z,12.00
2023-05-12T04:43:07.270Z,12.10
2023-05-12T04:45:35.404Z,12.20
2023-05-12T04:48:03.729Z,12.10
2023-05-12T04:50:31.769Z,12.10
2023-05-12T04:53:01.534Z,12.10
2023-05-12T04:55:31.178Z,12.00
2023-05-12T04:57:59.463Z,12.00
2023-05-12T05:00:27.737Z,11.90
2023-05-12T05:02:56.725Z,11.90
2023-05-12T05:05:24.951Z,11.90
2023-05-12T05:07:53.103Z,11.80
2023-05-12T05:10:22.734Z,11.80
2023-05-12T05:12:51.000Z,11.80
2023-05-12T05:15:22.000Z,11.70
2023-05-12T05:17:50.337Z,11.90
2023-05-12T05:20:19.901Z,11.80
2023-05-12T05:22:48.597Z,11.80
2023-05-12T05:25:17.321Z,11.80
2023-05-12T05:27:46.857Z,11.80
2023-05-12T05:30:15.112Z,11.80
2023-05-12T05:32:43.252Z,11.80
2023-05-12T05:35:11.477Z,11.80
2023-05-12T05:37:44.436Z,11.90
2023-05-12T05:40:13.042Z,11.90
2023-05-12T05:42:41.049Z,11.90
2023-05-12T05:45:11.920Z,12.00
2023-05-12T05:47:40.653Z,12.00
2023-05-12T05:50:12.776Z,12.00
2023-05-12T05:52:42.620Z,12.10
2023-05-12T05:55:11.136Z,12.10
2023-05-12T05:57:41.883Z,12.10
2023-05-12T06:00:13.048Z,12.10
2023-05-12T06:02:48.349Z,12.10
2023-05-12T06:05:20.145Z,12.10
2023-05-12T06:07:48.283Z,12.20
2023-05-12T06:10:20.732Z,12.20
2023-05-12T06:12:50.541Z,12.30
2023-05-12T06:15:20.537Z,12.30
2023-05-12T06:17:50.982Z,12.40
2023-05-12T06:20:20.019Z,12.50
2023-05-12T06:22:48.320Z,12.50
2023-05-12T06:25:18.225Z,12.60
2023-05-12T06:27:48.057Z,12.60
2023-05-12T06:30:16.737Z,12.60
2023-05-12T06:32:46.288Z,12.60
2023-05-12T06:35:14.325Z,12.70
2023-05-12T06:37:44.917Z,12.70
2023-05-12T06:40:16.266Z,12.70
2023-05-12T06:42:44.484Z,12.70
2023-05-12T06:45:13.611Z,12.80
2023-05-12T06:47:41.569Z,12.90
2023-05-12T06:50:16.896Z,13.10
2023-05-12T06:52:47.038Z,13.20
2023-05-12T06:55:19.828Z,13.30
2023-05-12T06:57:55.853Z,13.40
2023-05-12T07:00:24.903Z,13.60
2023-05-12T07:02:54.574Z,13.80
2023-05-12T07:05:24.347Z,14.00
2023-05-12T07:07:52.953Z,14.00
2023-05-12T07:10:21.920Z,14.20
2023-05-12T07:12:50.055Z,14.50
2023-05-12T07:15:19.120Z,14.60
2023-05-12T07:17:50.657Z,14.90
2023-05-12T07:20:18.832Z,15.00
2023-05-12T07:22:48.192Z,15.10
2023-05-12T07:25:17.039Z,15.10
2023-05-12T07:27:45.325Z,15.10
2023-05-12T07:30:14.922Z,15.10
2023-05-12T07:32:42.989Z,15.10
2023-05-12T07:35:11.554Z,14.90
2023-05-12T07:37:39.628Z,14.80
2023-05-12T07:40:10.011Z,14.60
2023-05-12T07:42:38.305Z,14.40
2023-05-12T07:45:07.304Z,14.20
2023-05-12T07:47:35.452Z,14.00
2023-05-12T07:50:03.600Z,13.90
2023-05-12T07:52:31.708Z,13.90
2023-05-12T07:54:59.806Z,13.90
2023-05-12T07:57:29.262Z,14.00
2023-05-12T07:59:57.645Z,14.20
2023-05-12T08:02:26.019Z,14.40
2023-05-12T08:04:54.087Z,14.60
2023-05-12T08:07:22.408Z,14.80
2023-05-12T08:09:50.685Z,15.00
2023-05-12T08:12:18.689Z,15.20
2023-05-12T08:14:48.298Z,15.30
2023-05-12T08:17:16.467Z,15.70
2023-05-12T08:19:44.782Z,16.00
2023-05-12T08:22:12.931Z,16.20
2023-05-12T08:24:40.978Z,16.30
2023-05-12T08:27:09.036Z,16.40
2023-05-12T08:29:37.119Z,16.60
2023-05-12T08:32:07.470Z,16.60
2023-05-12T08:34:36.023Z,16.70
2023-05-12T08:37:04.109Z,16.70
2023-05-12T08:39:33.741Z,16.70
2023-05-12T08:42:10.653Z,16.60
2023-05-12T08:44:39.399Z,16.50
2023-05-12T08:47:10.412Z,16.60
2023-05-12T08:49:40.745Z,16.60
2023-05-12T08:52:10.299Z,16.70
2023-05-12T08:54:52.333Z,16.70
2023-05-12T08:57:24.586Z,16.60
2023-05-12T08:59:55.010Z,16.60
2023-05-12T09:02:25.212Z,16.60
2023-05-12T09:04:54.922Z,16.70
2023-05-12T09:07:24.383Z,16.90
2023-05-12T09:09:57.356Z,16.90
2023-05-12T09:12:27.840Z,16.80
2023-05-12T09:15:01.688Z,16.70
2023-05-12T09:17:31.206Z,16.60
2023-05-12T09:19:59.788Z,16.50
2023-05-12T09:22:31.530Z,16.30
2023-05-12T09:24:59.822Z,16.20
2023-05-12T09:27:28.549Z,16.30
2023-05-12T09:29:59.636Z,16.50
2023-05-12T09:32:34.140Z,16.90
2023-05-12T09:35:07.872Z,17.20
2023-05-12T09:37:36.439Z,17.50
2023-05-12T09:40:06.712Z,17.80
2023-05-12T09:42:36.258Z,17.90
2023-05-12T09:45:04.966Z,18.10
2023-05-12T09:47:38.674Z,18.10
2023-05-12T09:50:08.699Z,18.10
2023-05-12T09:52:39.275Z,18.00
2023-05-12T09:55:09.942Z,17.90
2023-05-12T09:57:44.569Z,17.80
2023-05-12T10:00:33.195Z,17.70
2023-05-12T10:03:11.852Z,17.50
2023-05-12T10:05:47.687Z,17.30
2023-05-12T10:08:22.871Z,17.20
2023-05-12T10:10:54.217Z,17.20
2023-05-12T10:13:23.782Z,17.20
2023-05-12T10:15:55.204Z,17.50
2023-05-12T10:18:29.213Z,17.80
2023-05-12T10:20:58.660Z,18.10
2023-05-12T10:23:27.811Z,18.20
2023-05-12T10:26:02.435Z,18.40
2023-05-12T10:28:30.767Z,18.60
2023-05-12T10:30:59.632Z,18.70
2023-05-12T10:33:29.153Z,18.80
2023-05-12T10:35:57.333Z,19.00
2023-05-12T10:38:25.666Z,19.20
2023-05-12T10:40:55.794Z,19.40
2023-05-12T10:43:25.517Z,19.50
2023-05-12T10:46:09.362Z,19.60
2023-05-12T10:48:52.903Z,19.60
2023-05-12T10:51:24.806Z,19.70
2023-05-12T10:53:54.956Z,19.80
2023-05-12T10:56:24.913Z,19.90
2023-05-12T10:59:12.874Z,20.00
2023-05-12T11:01:43.201Z,20.10
2023-05-12T11:04:16.305Z,20.10
2023-05-12T11:06:47.154Z,19.90
2023-05-12T11:09:17.730Z,19.70
2023-05-12T11:11:47.617Z,19.40
2023-05-12T11:14:16.410Z,19.10
2023-05-12T11:16:45.207Z,18.80
2023-05-12T11:19:15.086Z,18.50
2023-05-12T11:21:43.700Z,18.10
2023-05-12T11:24:15.222Z,17.80
2023-05-12T11:26:43.508Z,17.40
2023-05-12T11:29:11.804Z,17.20
2023-05-12T11:31:39.929Z,17.10
2023-05-12T11:34:12.699Z,17.10
2023-05-12T11:36:45.330Z,17.20
2023-05-12T11:39:18.082Z,17.30
2023-05-12T11:41:46.563Z,17.50
2023-05-12T11:44:18.822Z,17.60
2023-05-12T11:46:57.635Z,17.80
2023-05-12T11:49:26.210Z,17.90
2023-05-12T11:51:57.365Z,18.20
2023-05-12T11:54:26.159Z,18.40
2023-05-12T11:56:55.739Z,18.60
2023-05-12T11:59:28.270Z,18.70
2023-05-12T12:01:56.529Z,18.80
2023-05-12T12:04:35.489Z,19.00
2023-05-12T12:07:06.969Z,19.20
2023-05-12T12:09:36.924Z,19.40
2023-05-12T12:12:07.844Z,19.70
2023-05-12T12:14:37.990Z,19.80
2023-05-12T12:17:06.712Z,20.00
2023-05-12T12:19:37.615Z,20.30
2023-05-12T12:22:07.426Z,20.40
2023-05-12T12:24:35.723Z,20.40
2023-05-12T12:27:04.652Z,20.40
2023-05-12T12:29:32.812Z,20.30
2023-05-12T12:32:01.142Z,20.00
2023-05-12T12:34:29.223Z,19.90
2023-05-12T12:36:57.526Z,19.40
2023-05-12T12:39:27.002Z,19.00
2023-05-12T12:41:55.455Z,18.60
2023-05-12T12:44:23.430Z,18.10
2023-05-12T12:46:51.516Z,17.80
2023-05-12T12:49:19.612Z,17.60
2023-05-12T12:51:47.967Z,17.40
2023-05-12T12:54:16.132Z,17.20
2023-05-12T12:56:45.665Z,17.10
2023-05-12T12:59:14.063Z,16.90
2023-05-12T13:01:42.117Z,16.80
2023-05-12T13:04:10.330Z,16.60
2023-05-12T13:06:38.434Z,16.50
2023-05-12T13:09:06.646Z,16.40
2023-05-12T13:11:34.696Z,16.50
2023-05-12T13:14:04.520Z,16.60
2023-05-12T13:16:33.181Z,16.80
2023-05-12T13:19:01.525Z,17.00
2023-05-12T13:21:29.714Z,17.20
2023-05-12T13:23:57.777Z,17.40
2023-05-12T13:26:25.939Z,17.50
2023-05-12T13:28:54.131Z,17.60
2023-05-12T13:31:23.492Z,17.60
2023-05-12T13:33:51.639Z,17.50
2023-05-12T13:36:19.739Z,17.40
2023-05-12T13:38:47.770Z,17.30
2023-05-12T13:41:15.860Z,17.10
2023-05-12T13:43:44.166Z,17.10
2023-05-12T13:46:12.344Z,17.10
2023-05-12T13:48:41.934Z,17.40
2023-05-12T13:51:10.258Z,17.40
2023-05-12T13:53:39.583Z,17.40
2023-05-12T13:56:16.770Z,17.40
2023-05-12T13:58:44.880Z,17.40
2023-05-12T14:01:13.233Z,17.50
2023-05-12T14:03:43.065Z,17.50
2023-05-12T14:06:12.523Z,17.40
2023-05-12T14:08:44.543Z,17.20
2023-05-12T14:11:12.614Z,17.10
2023-05-12T14:13:40.766Z,16.90
2023-05-12T14:16:09.763Z,16.80
2023-05-12T14:18:37.985Z,16.80
2023-05-12T14:21:09.027Z,16.70
2023-05-12T14:23:40.198Z,16.80
2023-05-12T14:26:08.287Z,16.80
2023-05-12T14:28:38.525Z,16.60
2023-05-12T14:31:06.955Z,16.50
2023-05-12T14:33:35.130Z,16.50
2023-05-12T14:36:08.063Z,16.50
2023-05-12T14:38:38.381Z,16.60
2023-05-12T14:41:08.623Z,16.80
2023-05-12T14:43:36.667Z,16.90
2023-05-12T14:46:06.139Z,17.00
2023-05-12T14:48:37.147Z,17.10
2023-05-12T14:51:05.617Z,17.20
2023-05-12T14:53:33.714Z,17.20
2023-05-12T14:56:03.183Z,17.30
2023-05-12T14:58:31.526Z,17.40
2023-05-12T15:01:01.940Z,17.50
2023-05-12T15:03:30.286Z,17.60
2023-05-12T15:06:06.310Z,17.60
2023-05-12T15:08:35.322Z,17.70
2023-05-12T15:11:05.105Z,17.60
2023-05-12T15:13:33.384Z,17.50
2023-05-12T15:16:02.877Z,17.40
2023-05-12T15:18:30.949Z,17.10
2023-05-12T15:20:58.987Z,17.00
2023-05-12T15:23:27.154Z,16.90
2023-05-12T15:25:55.180Z,17.00
2023-05-12T15:28:24.567Z,17.10
2023-05-12T15:30:57.110Z,17.30
2023-05-12T15:33:26.101Z,17.50
2023-05-12T15:35:56.769Z,17.50
2023-05-12T15:38:24.819Z,17.40
2023-05-12T15:40:52.929Z,17.40
2023-05-12T15:43:20.978Z,17.40
2023-05-12T15:45:50.500Z,17.70
2023-05-12T15:48:18.697Z,17.80
2023-05-12T15:50:46.898Z,17.70
2023-05-12T15:53:15.028Z,17.30
2023-05-12T15:55:43.375Z,16.80
2023-05-12T15:58:11.778Z,16.20
2023-05-12T16:00:40.265Z,15.60
2023-05-12T16:03:09.945Z,15.30
2023-05-12T16:05:38.766Z,15.00
2023-05-12T16:08:06.926Z,14.70
2023-05-12T16:10:34.938Z,14.60
2023-05-12T16:13:03.344Z,14.40
2023-05-12T16:15:34.270Z,14.40
2023-05-12T16:18:02.501Z,14.30
2023-05-12T16:20:32.072Z,14.10
2023-05-12T16:23:00.220Z,14.10
2023-05-12T16:25:28.437Z,14.50
2023-05-12T16:27:56.719Z,14.10
2023-05-12T16:30:25.217Z,14.00
2023-05-12T16:32:53.384Z,14.00
2023-05-12T16:35:21.821Z,14.00
2023-05-12T16:37:51.651Z,14.10
2023-05-12T16:40:20.418Z,14.20
2023-05-12T16:42:48.483Z,14.30
2023-05-12T16:45:28.591Z,14.40
2023-05-12T16:47:56.700Z,14.50
2023-05-12T16:50:24.821Z,14.60
2023-05-12T16:52:55.883Z,14.80
2023-05-12T16:55:26.347Z,14.80
2023-05-12T16:57:54.584Z,14.90
2023-05-12T17:00:23.021Z,15.00
2023-05-12T17:02:54.383Z,15.00
2023-05-12T17:05:23.222Z,15.10
2023-05-12T17:07:51.336Z,15.00
2023-05-12T17:10:20.836Z,14.90
2023-05-12T17:12:48.856Z,14.90
2023-05-12T17:15:17.270Z,15.00
2023-05-12T17:17:45.341Z,15.00
2023-05-12T17:20:13.879Z,15.10
2023-05-12T17:22:44.389Z,15.10
2023-05-12T17:25:16.984Z,15.20
2023-05-12T17:27:47.300Z,15.40
2023-05-12T17:30:15.860Z,15.60
2023-05-12T17:32:44.394Z,15.70
2023-05-12T17:35:12.679Z,15.70
2023-05-12T17:37:40.804Z,15.50
2023-05-12T17:40:15.202Z,15.40
2023-05-12T17:42:43.254Z,15.10
2023-05-12T17:45:15.905Z,15.00
2023-05-12T17:47:44.429Z,14.80
2023-05-12T17:50:14.975Z,14.60
2023-05-12T17:52:44.043Z,14.40
2023-05-12T17:55:13.817Z,14.30
2023-05-12T17:57:42.118Z,14.30
2023-05-12T18:00:13.188Z,14.20
2023-05-12T18:02:44.882Z,14.10
2023-05-12T18:05:13.665Z,14.10
2023-05-12T18:07:41.934Z,14.10
2023-05-12T18:10:12.587Z,14.20
2023-05-12T18:12:40.814Z,14.20
2023-05-12T18:15:12.545Z,14.20
2023-05-12T18:17:42.060Z,14.10
2023-05-12T18:20:10.704Z,14.20
2023-05-12T18:22:38.938Z,14.20
2023-05-12T18:25:09.802Z,14.10
2023-05-12T18:27:37.838Z,14.10
2023-05-12T18:30:06.844Z,14.10
2023-05-12T18:32:34.870Z,14.00
2023-05-12T18:35:06.456Z,14.00
2023-05-12T18:37:34.536Z,13.90
2023-05-12T18:40:02.843Z,13.90
2023-05-12T18:42:30.865Z,13.80
2023-05-12T18:44:58.925Z,13.80
2023-05-12T18:47:27.232Z,13.80
2023-05-12T18:49:55.472Z,13.70
2023-05-12T18:52:24.822Z,13.70
2023-05-12T18:54:55.831Z,13.70
2023-05-12T18:57:23.893Z,13.60
2023-05-12T18:59:58.984Z,13.50
2023-05-12T19:02:27.008Z,13.40
2023-05-12T19:04:55.145Z,13.30
2023-05-12T19:07:24.633Z,13.30
2023-05-12T19:09:52.655Z,13.20
2023-05-12T19:12:20.637Z,13.10
2023-05-12T19:14:48.944Z,13.10
2023-05-12T19:17:18.967Z,13.00
2023-05-12T19:19:47.032Z,13.00
2023-05-12T19:22:15.067Z,12.90
2023-05-12T19:24:44.559Z,12.80
2023-05-12T19:27:12.630Z,13.00
2023-05-12T19:29:40.596Z,12.80
2023-05-12T19:32:09.030Z,12.80
2023-05-12T19:34:37.500Z,12.80
2023-05-12T19:37:06.541Z,12.70
2023-05-12T19:39:36.697Z,12.70
2023-05-12T19:42:06.620Z,12.70
2023-05-12T19:44:34.723Z,12.60
2023-05-12T19:47:04.788Z,12.60
2023-05-12T19:49:34.826Z,12.60
2023-05-12T19:52:03.375Z,12.60
2023-05-12T19:54:31.613Z,12.60
2023-05-12T19:57:02.912Z,12.50
2023-05-12T19:59:32.300Z,12.50
2023-05-12T20:02:02.323Z,12.50
2023-05-12T20:04:33.429Z,12.30
2023-05-12T20:07:01.523Z,12.30
2023-05-12T20:09:29.530Z,12.20
2023-05-12T20:11:58.206Z,12.20
2023-05-12T20:14:26.377Z,12.10
2023-05-12T20:16:56.512Z,12.10
2023-05-12T20:19:24.620Z,12.00
2023-05-12T20:21:52.555Z,12.00
2023-05-12T20:24:23.161Z,11.90
2023-05-12T20:26:52.401Z,11.90
2023-05-12T20:29:21.536Z,11.90
2023-05-12T20:31:51.102Z,11.90
2023-05-12T20:34:20.818Z,11.80
2023-05-12T20:36:49.240Z,11.80
2023-05-12T20:39:18.646Z,11.80
2023-05-12T20:41:46.706Z,11.60
2023-05-12T20:44:14.739Z,11.70
2023-05-12T20:46:42.916Z,11.70
2023-05-12T20:49:10.959Z,11.70
2023-05-12T20:51:40.481Z,11.60
2023-05-12T20:54:08.500Z,11.60
2023-05-12T20:56:36.657Z,11.60
2023-05-12T20:59:04.709Z,11.50
2023-05-12T21:01:35.468Z,11.60
2023-05-12T21:04:04.302Z,11.60
2023-05-12T21:06:32.912Z,11.60
2023-05-12T21:09:04.784Z,11.60
2023-05-12T21:11:35.831Z,11.80
2023-05-12T21:14:04.127Z,11.70
2023-05-12T21:16:35.244Z,12.30
2023-05-12T21:19:03.483Z,11.70
2023-05-12T21:21:31.677Z,11.70
2023-05-12T21:23:59.694Z,11.70
2023-05-12T21:26:29.441Z,11.80
2023-05-12T21:28:57.687Z,11.90
2023-05-12T21:31:25.770Z,11.70
2023-05-12T21:33:53.825Z,11.70
2023-05-12T21:36:21.899Z,11.70
2023-05-12T21:38:50.014Z,11.70
2023-05-12T21:41:18.092Z,12.30
2023-05-12T21:43:47.513Z,11.90
2023-05-12T21:46:15.635Z,11.80
2023-05-12T21:48:43.744Z,11.80
2023-05-12T21:51:12.044Z,11.80
2023-05-12T21:53:40.157Z,11.80
2023-05-12T21:56:08.642Z,11.70
2023-05-12T21:58:37.170Z,11.80
2023-05-12T22:01:07.073Z,11.80
2023-05-12T22:03:35.317Z,11.80
2023-05-12T22:06:03.566Z,11.80
2023-05-12T22:08:31.585Z,11.80
2023-05-12T22:10:59.629Z,11.90
2023-05-12T22:13:30.606Z,11.90
2023-05-12T22:15:59.137Z,11.80
2023-05-12T22:18:31.674Z,12.40
2023-05-12T22:20:59.890Z,12.10
2023-05-12T22:23:27.996Z,11.80
2023-05-12T22:25:56.517Z,11.80
2023-05-12T22:28:24.776Z,11.70
2023-05-12T22:30:52.843Z,11.70
2023-05-12T22:33:21.060Z,11.70
2023-05-12T22:35:50.509Z,11.70
2023-05-12T22:38:18.584Z,11.60
2023-05-12T22:40:47.652Z,11.70
2023-05-12T22:43:15.887Z,11.60
2023-05-12T22:45:43.970Z,11.70
2023-05-12T22:48:12.313Z,11.50
2023-05-12T22:50:40.321Z,11.50
2023-05-12T22:53:09.694Z,11.50
2023-05-12T22:55:41.955Z,11.40
2023-05-12T22:58:11.568Z,11.50
2023-05-12T23:00:39.695Z,11.40
2023-05-12T23:03:11.813Z,11.40
2023-05-12T23:05:39.942Z,11.40
2023-05-12T23:08:09.380Z,11.40
2023-05-12T23:10:37.944Z,11.40
2023-05-12T23:13:06.088Z,11.40
2023-05-12T23:15:34.405Z,11.60
2023-05-12T23:18:02.478Z,11.30
2023-05-12T23:20:31.729Z,11.30
2023-05-12T23:22:59.751Z,11.30
2023-05-12T23:25:29.216Z,11.30
2023-05-12T23:28:00.270Z,11.30
2023-05-12T23:30:31.891Z,11.20
2023-05-12T23:33:01.409Z,11.20
2023-05-12T23:35:29.901Z,11.20
2023-05-12T23:37:58.054Z,11.10
2023-05-12T23:40:26.279Z,11.10
2023-05-12T23:42:55.700Z,11.10
2023-05-12T23:45:23.749Z,11.00
2023-05-12T23:47:51.936Z,10.90
2023-05-12T23:50:20.163Z,10.80
2023-05-12T23:52:48.320Z,10.90
2023-05-12T23:55:16.554Z,10.80
2023-05-12T23:57:45.716Z,10.80
